sensor_id;sensor_type;location;lat;lon;timestamp;temperature;humidity
15543;DHT22;7873;52.230;12.856;2022-08-19T00:00:34;26.70;63.70
15543;DHT22;7873;52.230;12.856;2022-08-19T00:03:01;26.60;64.00
15543;DHT22;7873;52.230;12.856;2022-08-19T00:05:29;26.60;64.00
15543;DHT22;7873;52.230;12.856;2022-08-19T00:07:56;26.70;63.80
15543;DHT22;7873;52.230;12.856;2022-08-19T00:10:24;26.60;63.90
15543;DHT22;7873;52.230;12.856;2022-08-19T00:12:51;26.50;64.30
15543;DHT22;7873;52.230;12.856;2022-08-19T00:15:19;26.50;64.00
15543;DHT22;7873;52.230;12.856;2022-08-19T00:17:47;26.50;63.90
15543;DHT22;7873;52.230;12.856;2022-08-19T00:20:15;26.60;64.10
15543;DHT22;7873;52.230;12.856;2022-08-19T00:22:44;26.50;63.70
15543;DHT22;7873;52.230;12.856;2022-08-19T00:25:11;26.60;63.80
15543;DHT22;7873;52.230;12.856;2022-08-19T00:27:39;26.60;63.70
15543;DHT22;7873;52.230;12.856;2022-08-19T00:30:07;26.60;63.70
15543;DHT22;7873;52.230;12.856;2022-08-19T00:32:35;26.70;63.40
15543;DHT22;7873;52.230;12.856;2022-08-19T00:35:02;26.70;63.20
15543;DHT22;7873;52.230;12.856;2022-08-19T00:37:29;26.60;63.30
15543;DHT22;7873;52.230;12.856;2022-08-19T00:39:56;26.60;63.40
15543;DHT22;7873;52.230;12.856;2022-08-19T00:42:22;26.60;63.10
15543;DHT22;7873;52.230;12.856;2022-08-19T00:44:54;26.60;63.40
15543;DHT22;7873;52.230;12.856;2022-08-19T00:47:21;26.60;63.10
15543;DHT22;7873;52.230;12.856;2022-08-19T00:49:48;26.60;63.30
15543;DHT22;7873;52.230;12.856;2022-08-19T00:52:18;26.60;63.40
15543;DHT22;7873;52.230;12.856;2022-08-19T00:54:49;26.60;63.10
15543;DHT22;7873;52.230;12.856;2022-08-19T00:57:18;26.60;64.00
15543;DHT22;7873;52.230;12.856;2022-08-19T00:59:48;26.70;63.00
15543;DHT22;7873;52.230;12.856;2022-08-19T01:02:20;26.60;64.00
15543;DHT22;7873;52.230;12.856;2022-08-19T01:04:47;26.60;63.00
15543;DHT22;7873;52.230;12.856;2022-08-19T01:07:15;26.60;62.90
15543;DHT22;7873;52.230;12.856;2022-08-19T01:09:42;26.60;62.80
15543;DHT22;7873;52.230;12.856;2022-08-19T01:12:09;26.60;63.10
15543;DHT22;7873;52.230;12.856;2022-08-19T01:14:36;26.60;63.10
15543;DHT22;7873;52.230;12.856;2022-08-19T01:17:22;26.60;63.40
15543;DHT22;7873;52.230;12.856;2022-08-19T01:19:51;26.50;63.40
15543;DHT22;7873;52.230;12.856;2022-08-19T01:22:19;26.60;63.10
15543;DHT22;7873;52.230;12.856;2022-08-19T01:24:53;26.50;63.20
15543;DHT22;7873;52.230;12.856;2022-08-19T01:27:20;26.60;62.90
15543;DHT22;7873;52.230;12.856;2022-08-19T01:29:46;26.50;63.50
15543;DHT22;7873;52.230;12.856;2022-08-19T01:32:14;26.60;63.20
15543;DHT22;7873;52.230;12.856;2022-08-19T01:34:42;26.60;62.80
15543;DHT22;7873;52.230;12.856;2022-08-19T01:37:12;26.60;63.10
15543;DHT22;7873;52.230;12.856;2022-08-19T01:39:41;26.50;63.10
15543;DHT22;7873;52.230;12.856;2022-08-19T01:42:08;26.50;63.20
15543;DHT22;7873;52.230;12.856;2022-08-19T01:44:37;26.50;63.40
15543;DHT22;7873;52.230;12.856;2022-08-19T01:47:06;26.60;63.30
15543;DHT22;7873;52.230;12.856;2022-08-19T01:49:33;26.50;63.40
15543;DHT22;7873;52.230;12.856;2022-08-19T01:52:00;26.60;63.40
15543;DHT22;7873;52.230;12.856;2022-08-19T01:54:27;26.50;63.40
15543;DHT22;7873;52.230;12.856;2022-08-19T01:56:57;26.50;63.30
15543;DHT22;7873;52.230;12.856;2022-08-19T01:59:28;26.60;63.20
15543;DHT22;7873;52.230;12.856;2022-08-19T02:01:56;26.50;63.20
15543;DHT22;7873;52.230;12.856;2022-08-19T02:04:22;26.60;63.00
15543;DHT22;7873;52.230;12.856;2022-08-19T02:06:50;26.50;63.30
15543;DHT22;7873;52.230;12.856;2022-08-19T02:09:17;26.50;63.20
15543;DHT22;7873;52.230;12.856;2022-08-19T02:11:43;26.60;63.20
15543;DHT22;7873;52.230;12.856;2022-08-19T02:14:11;26.50;63.40
15543;DHT22;7873;52.230;12.856;2022-08-19T02:16:39;26.50;63.30
15543;DHT22;7873;52.230;12.856;2022-08-19T02:19:05;26.50;63.30
15543;DHT22;7873;52.230;12.856;2022-08-19T02:21:32;26.50;63.50
15543;DHT22;7873;52.230;12.856;2022-08-19T02:23:59;26.40;63.90
15543;DHT22;7873;52.230;12.856;2022-08-19T02:26:26;26.30;64.10
15543;DHT22;7873;52.230;12.856;2022-08-19T02:28:53;26.30;64.10
15543;DHT22;7873;52.230;12.856;2022-08-19T02:31:22;26.40;63.90
15543;DHT22;7873;52.230;12.856;2022-08-19T02:33:51;26.40;63.50
15543;DHT22;7873;52.230;12.856;2022-08-19T02:36:18;26.40;63.70
15543;DHT22;7873;52.230;12.856;2022-08-19T02:38:45;26.40;63.90
15543;DHT22;7873;52.230;12.856;2022-08-19T02:41:13;26.40;63.90
15543;DHT22;7873;52.230;12.856;2022-08-19T02:43:42;26.40;63.90
15543;DHT22;7873;52.230;12.856;2022-08-19T02:46:12;26.40;63.90
15543;DHT22;7873;52.230;12.856;2022-08-19T02:48:42;26.40;63.90
15543;DHT22;7873;52.230;12.856;2022-08-19T02:51:08;26.40;63.40
15543;DHT22;7873;52.230;12.856;2022-08-19T02:53:42;26.50;63.60
15543;DHT22;7873;52.230;12.856;2022-08-19T02:56:09;26.40;63.70
15543;DHT22;7873;52.230;12.856;2022-08-19T02:58:36;26.40;64.00
15543;DHT22;7873;52.230;12.856;2022-08-19T03:01:02;26.40;63.90
15543;DHT22;7873;52.230;12.856;2022-08-19T03:03:29;26.40;63.90
15543;DHT22;7873;52.230;12.856;2022-08-19T03:06:09;26.30;63.90
15543;DHT22;7873;52.230;12.856;2022-08-19T03:08:40;26.30;63.80
15543;DHT22;7873;52.230;12.856;2022-08-19T03:11:12;26.30;64.00
15543;DHT22;7873;52.230;12.856;2022-08-19T03:13:39;26.20;64.50
15543;DHT22;7873;52.230;12.856;2022-08-19T03:16:06;26.30;64.40
15543;DHT22;7873;52.230;12.856;2022-08-19T03:18:33;26.30;64.20
15543;DHT22;7873;52.230;12.856;2022-08-19T03:21:00;26.30;64.20
15543;DHT22;7873;52.230;12.856;2022-08-19T03:23:28;26.20;64.00
15543;DHT22;7873;52.230;12.856;2022-08-19T03:25:54;26.30;63.90
15543;DHT22;7873;52.230;12.856;2022-08-19T03:28:21;26.40;63.90
15543;DHT22;7873;52.230;12.856;2022-08-19T03:30:55;26.40;63.70
15543;DHT22;7873;52.230;12.856;2022-08-19T03:33:23;26.40;63.60
15543;DHT22;7873;52.230;12.856;2022-08-19T03:36:01;26.30;63.90
15543;DHT22;7873;52.230;12.856;2022-08-19T03:38:34;26.40;63.70
15543;DHT22;7873;52.230;12.856;2022-08-19T03:41:02;26.30;63.90
15543;DHT22;7873;52.230;12.856;2022-08-19T03:43:32;26.30;64.10
15543;DHT22;7873;52.230;12.856;2022-08-19T03:46:00;26.30;63.90
15543;DHT22;7873;52.230;12.856;2022-08-19T03:48:29;26.30;63.90
15543;DHT22;7873;52.230;12.856;2022-08-19T03:50:56;26.30;63.90
15543;DHT22;7873;52.230;12.856;2022-08-19T03:53:24;26.40;63.40
15543;DHT22;7873;52.230;12.856;2022-08-19T03:55:53;26.40;63.50
15543;DHT22;7873;52.230;12.856;2022-08-19T03:58:21;26.50;63.40
15543;DHT22;7873;52.230;12.856;2022-08-19T04:00:47;26.40;63.30
15543;DHT22;7873;52.230;12.856;2022-08-19T04:03:15;26.40;63.20
15543;DHT22;7873;52.230;12.856;2022-08-19T04:05:44;26.40;63.50
15543;DHT22;7873;52.230;12.856;2022-08-19T04:08:11;26.40;63.50
15543;DHT22;7873;52.230;12.856;2022-08-19T04:10:39;26.40;64.80
15543;DHT22;7873;52.230;12.856;2022-08-19T04:13:08;26.30;64.60
15543;DHT22;7873;52.230;12.856;2022-08-19T04:15:38;26.30;64.80
15543;DHT22;7873;52.230;12.856;2022-08-19T04:18:07;26.20;65.00
15543;DHT22;7873;52.230;12.856;2022-08-19T04:20:38;26.30;65.60
15543;DHT22;7873;52.230;12.856;2022-08-19T04:23:05;26.20;66.00
15543;DHT22;7873;52.230;12.856;2022-08-19T04:25:34;26.20;65.60
15543;DHT22;7873;52.230;12.856;2022-08-19T04:28:02;26.20;65.70
15543;DHT22;7873;52.230;12.856;2022-08-19T04:30:30;26.20;65.40
15543;DHT22;7873;52.230;12.856;2022-08-19T04:32:57;26.10;65.60
15543;DHT22;7873;52.230;12.856;2022-08-19T04:35:25;26.20;65.70
15543;DHT22;7873;52.230;12.856;2022-08-19T04:37:51;26.10;65.30
15543;DHT22;7873;52.230;12.856;2022-08-19T04:40:18;26.20;65.70
15543;DHT22;7873;52.230;12.856;2022-08-19T04:43:02;26.10;66.00
15543;DHT22;7873;52.230;12.856;2022-08-19T04:45:30;26.10;65.90
15543;DHT22;7873;52.230;12.856;2022-08-19T04:47:57;26.00;65.90
15543;DHT22;7873;52.230;12.856;2022-08-19T04:50:24;26.00;66.20
15543;DHT22;7873;52.230;12.856;2022-08-19T04:52:51;26.00;66.20
15543;DHT22;7873;52.230;12.856;2022-08-19T04:55:18;26.00;66.20
15543;DHT22;7873;52.230;12.856;2022-08-19T04:57:45;26.00;65.80
15543;DHT22;7873;52.230;12.856;2022-08-19T05:00:12;26.10;65.40
15543;DHT22;7873;52.230;12.856;2022-08-19T05:02:40;26.20;65.10
15543;DHT22;7873;52.230;12.856;2022-08-19T05:05:07;26.20;64.50
15543;DHT22;7873;52.230;12.856;2022-08-19T05:07:35;26.30;64.30
15543;DHT22;7873;52.230;12.856;2022-08-19T05:10:02;26.30;64.50
15543;DHT22;7873;52.230;12.856;2022-08-19T05:12:30;26.30;64.20
15543;DHT22;7873;52.230;12.856;2022-08-19T05:14:58;26.30;63.90
15543;DHT22;7873;52.230;12.856;2022-08-19T05:17:26;26.40;64.00
15543;DHT22;7873;52.230;12.856;2022-08-19T05:19:54;26.40;63.90
15543;DHT22;7873;52.230;12.856;2022-08-19T05:22:38;26.30;64.80
15543;DHT22;7873;52.230;12.856;2022-08-19T05:25:07;26.20;65.90
15543;DHT22;7873;52.230;12.856;2022-08-19T05:27:35;26.00;66.30
15543;DHT22;7873;52.230;12.856;2022-08-19T05:30:02;26.00;67.00
15543;DHT22;7873;52.230;12.856;2022-08-19T05:32:29;26.00;66.50
15543;DHT22;7873;52.230;12.856;2022-08-19T05:34:58;26.00;66.80
15543;DHT22;7873;52.230;12.856;2022-08-19T05:37:24;26.00;66.00
15543;DHT22;7873;52.230;12.856;2022-08-19T05:39:52;26.10;65.90
15543;DHT22;7873;52.230;12.856;2022-08-19T05:42:20;26.20;65.70
15543;DHT22;7873;52.230;12.856;2022-08-19T05:44:48;26.20;65.50
15543;DHT22;7873;52.230;12.856;2022-08-19T05:47:15;26.00;65.80
15543;DHT22;7873;52.230;12.856;2022-08-19T05:49:44;26.10;65.00
15543;DHT22;7873;52.230;12.856;2022-08-19T05:52:12;26.20;64.80
15543;DHT22;7873;52.230;12.856;2022-08-19T05:54:41;26.30;65.40
15543;DHT22;7873;52.230;12.856;2022-08-19T05:57:10;26.30;64.70
15543;DHT22;7873;52.230;12.856;2022-08-19T05:59:37;26.30;64.20
15543;DHT22;7873;52.230;12.856;2022-08-19T06:02:04;26.40;63.90
15543;DHT22;7873;52.230;12.856;2022-08-19T06:04:32;26.40;63.90
15543;DHT22;7873;52.230;12.856;2022-08-19T06:06:59;26.40;63.40
15543;DHT22;7873;52.230;12.856;2022-08-19T06:09:28;26.40;63.60
15543;DHT22;7873;52.230;12.856;2022-08-19T06:11:56;26.40;63.50
15543;DHT22;7873;52.230;12.856;2022-08-19T06:14:25;26.30;63.90
15543;DHT22;7873;52.230;12.856;2022-08-19T06:16:55;26.20;63.90
15543;DHT22;7873;52.230;12.856;2022-08-19T06:19:21;26.20;63.90
15543;DHT22;7873;52.230;12.856;2022-08-19T06:21:51;26.20;63.90
15543;DHT22;7873;52.230;12.856;2022-08-19T06:24:19;26.30;63.50
15543;DHT22;7873;52.230;12.856;2022-08-19T06:26:50;26.30;63.20
15543;DHT22;7873;52.230;12.856;2022-08-19T06:29:20;26.30;62.90
15543;DHT22;7873;52.230;12.856;2022-08-19T06:31:48;26.30;62.60
15543;DHT22;7873;52.230;12.856;2022-08-19T06:34:16;26.30;62.60
15543;DHT22;7873;52.230;12.856;2022-08-19T06:36:45;26.30;62.40
15543;DHT22;7873;52.230;12.856;2022-08-19T06:39:14;26.30;62.30
15543;DHT22;7873;52.230;12.856;2022-08-19T06:41:43;26.30;62.20
15543;DHT22;7873;52.230;12.856;2022-08-19T06:44:12;26.30;62.10
15543;DHT22;7873;52.230;12.856;2022-08-19T06:46:40;26.30;62.00
15543;DHT22;7873;52.230;12.856;2022-08-19T06:49:07;26.30;62.00
15543;DHT22;7873;52.230;12.856;2022-08-19T06:51:39;26.30;62.00
15543;DHT22;7873;52.230;12.856;2022-08-19T06:54:06;26.30;62.00
15543;DHT22;7873;52.230;12.856;2022-08-19T06:56:34;26.30;62.00
15543;DHT22;7873;52.230;12.856;2022-08-19T06:59:01;26.30;61.80
15543;DHT22;7873;52.230;12.856;2022-08-19T07:01:33;26.30;61.70
15543;DHT22;7873;52.230;12.856;2022-08-19T07:04:03;26.30;61.70
15543;DHT22;7873;52.230;12.856;2022-08-19T07:06:30;26.30;61.70
15543;DHT22;7873;52.230;12.856;2022-08-19T07:08:57;26.30;61.70
15543;DHT22;7873;52.230;12.856;2022-08-19T07:11:24;26.20;61.80
15543;DHT22;7873;52.230;12.856;2022-08-19T07:13:51;26.20;61.90
15543;DHT22;7873;52.230;12.856;2022-08-19T07:16:19;26.20;61.70
15543;DHT22;7873;52.230;12.856;2022-08-19T07:18:47;26.30;61.70
15543;DHT22;7873;52.230;12.856;2022-08-19T07:21:16;26.30;61.30
15543;DHT22;7873;52.230;12.856;2022-08-19T07:23:44;26.30;61.60
15543;DHT22;7873;52.230;12.856;2022-08-19T07:26:12;26.30;61.50
15543;DHT22;7873;52.230;12.856;2022-08-19T07:28:40;26.30;61.50
15543;DHT22;7873;52.230;12.856;2022-08-19T07:31:09;26.30;61.60
15543;DHT22;7873;52.230;12.856;2022-08-19T07:33:37;26.20;61.40
15543;DHT22;7873;52.230;12.856;2022-08-19T07:36:06;26.20;61.50
15543;DHT22;7873;52.230;12.856;2022-08-19T07:38:36;26.30;61.40
15543;DHT22;7873;52.230;12.856;2022-08-19T07:41:04;26.20;61.30
15543;DHT22;7873;52.230;12.856;2022-08-19T07:43:31;26.30;62.00
15543;DHT22;7873;52.230;12.856;2022-08-19T07:45:58;26.10;63.20
15543;DHT22;7873;52.230;12.856;2022-08-19T07:48:25;26.20;63.50
15543;DHT22;7873;52.230;12.856;2022-08-19T07:50:53;26.10;66.00
15543;DHT22;7873;52.230;12.856;2022-08-19T07:53:21;26.00;66.90
15543;DHT22;7873;52.230;12.856;2022-08-19T07:55:49;25.90;67.30
15543;DHT22;7873;52.230;12.856;2022-08-19T07:58:18;26.00;67.50
15543;DHT22;7873;52.230;12.856;2022-08-19T08:00:47;25.80;67.70
15543;DHT22;7873;52.230;12.856;2022-08-19T08:03:16;25.80;68.30
15543;DHT22;7873;52.230;12.856;2022-08-19T08:05:45;25.70;68.50
15543;DHT22;7873;52.230;12.856;2022-08-19T08:08:30;25.60;69.10
15543;DHT22;7873;52.230;12.856;2022-08-19T08:11:26;25.70;68.70
15543;DHT22;7873;52.230;12.856;2022-08-19T08:13:53;25.70;68.20
15543;DHT22;7873;52.230;12.856;2022-08-19T08:16:20;25.70;69.20
15543;DHT22;7873;52.230;12.856;2022-08-19T08:18:46;25.60;69.60
15543;DHT22;7873;52.230;12.856;2022-08-19T08:21:13;25.70;69.00
15543;DHT22;7873;52.230;12.856;2022-08-19T08:23:41;25.60;69.10
15543;DHT22;7873;52.230;12.856;2022-08-19T08:26:08;25.70;69.00
15543;DHT22;7873;52.230;12.856;2022-08-19T08:28:34;25.70;68.80
15543;DHT22;7873;52.230;12.856;2022-08-19T08:31:02;25.90;68.40
15543;DHT22;7873;52.230;12.856;2022-08-19T08:33:30;25.70;69.20
15543;DHT22;7873;52.230;12.856;2022-08-19T08:35:58;25.60;69.30
15543;DHT22;7873;52.230;12.856;2022-08-19T08:38:25;25.50;70.50
15543;DHT22;7873;52.230;12.856;2022-08-19T08:40:56;25.30;71.30
15543;DHT22;7873;52.230;12.856;2022-08-19T08:43:29;25.00;72.80
15543;DHT22;7873;52.230;12.856;2022-08-19T08:46:00;25.10;71.90
15543;DHT22;7873;52.230;12.856;2022-08-19T08:48:34;25.30;71.10
15543;DHT22;7873;52.230;12.856;2022-08-19T08:51:07;25.40;70.50
15543;DHT22;7873;52.230;12.856;2022-08-19T08:53:37;25.50;70.20
15543;DHT22;7873;52.230;12.856;2022-08-19T08:56:09;25.50;70.20
15543;DHT22;7873;52.230;12.856;2022-08-19T08:58:40;25.60;69.30
15543;DHT22;7873;52.230;12.856;2022-08-19T09:01:14;25.70;68.70
15543;DHT22;7873;52.230;12.856;2022-08-19T09:03:41;25.80;68.90
15543;DHT22;7873;52.230;12.856;2022-08-19T09:06:14;25.80;67.50
15543;DHT22;7873;52.230;12.856;2022-08-19T09:08:53;25.90;67.20
15543;DHT22;7873;52.230;12.856;2022-08-19T09:11:32;25.90;67.00
15543;DHT22;7873;52.230;12.856;2022-08-19T09:14:09;25.90;66.70
15543;DHT22;7873;52.230;12.856;2022-08-19T09:16:42;25.90;66.40
15543;DHT22;7873;52.230;12.856;2022-08-19T09:19:09;25.90;66.40
15543;DHT22;7873;52.230;12.856;2022-08-19T09:21:37;25.90;66.20
15543;DHT22;7873;52.230;12.856;2022-08-19T09:24:04;25.90;66.00
15543;DHT22;7873;52.230;12.856;2022-08-19T09:26:33;25.90;65.70
15543;DHT22;7873;52.230;12.856;2022-08-19T09:29:00;25.90;65.70
15543;DHT22;7873;52.230;12.856;2022-08-19T09:31:30;25.90;65.40
15543;DHT22;7873;52.230;12.856;2022-08-19T09:33:57;26.00;65.40
15543;DHT22;7873;52.230;12.856;2022-08-19T09:36:25;26.00;65.10
15543;DHT22;7873;52.230;12.856;2022-08-19T09:38:57;26.00;64.80
15543;DHT22;7873;52.230;12.856;2022-08-19T09:41:25;26.00;64.60
15543;DHT22;7873;52.230;12.856;2022-08-19T09:43:54;26.00;64.50
15543;DHT22;7873;52.230;12.856;2022-08-19T09:46:23;26.10;64.30
15543;DHT22;7873;52.230;12.856;2022-08-19T09:48:51;26.00;64.20
15543;DHT22;7873;52.230;12.856;2022-08-19T09:51:19;26.00;64.20
15543;DHT22;7873;52.230;12.856;2022-08-19T09:53:47;26.00;64.10
15543;DHT22;7873;52.230;12.856;2022-08-19T09:56:16;26.00;64.00
15543;DHT22;7873;52.230;12.856;2022-08-19T09:58:44;26.00;63.90
15543;DHT22;7873;52.230;12.856;2022-08-19T10:01:16;26.00;63.90
15543;DHT22;7873;52.230;12.856;2022-08-19T10:03:46;26.00;63.70
15543;DHT22;7873;52.230;12.856;2022-08-19T10:06:15;26.00;64.50
15543;DHT22;7873;52.230;12.856;2022-08-19T10:08:45;26.00;65.40
15543;DHT22;7873;52.230;12.856;2022-08-19T10:11:15;26.00;65.40
15543;DHT22;7873;52.230;12.856;2022-08-19T10:13:42;25.80;66.00
15543;DHT22;7873;52.230;12.856;2022-08-19T10:16:11;25.70;67.00
15543;DHT22;7873;52.230;12.856;2022-08-19T10:18:42;25.50;68.90
15543;DHT22;7873;52.230;12.856;2022-08-19T10:21:10;25.30;69.60
15543;DHT22;7873;52.230;12.856;2022-08-19T10:23:39;25.30;69.90
15543;DHT22;7873;52.230;12.856;2022-08-19T10:26:10;25.40;69.30
15543;DHT22;7873;52.230;12.856;2022-08-19T10:28:38;25.40;69.30
15543;DHT22;7873;52.230;12.856;2022-08-19T10:31:06;25.60;68.60
15543;DHT22;7873;52.230;12.856;2022-08-19T10:33:34;25.60;68.40
15543;DHT22;7873;52.230;12.856;2022-08-19T10:36:04;25.50;68.40
15543;DHT22;7873;52.230;12.856;2022-08-19T10:38:33;25.60;68.10
15543;DHT22;7873;52.230;12.856;2022-08-19T10:41:06;25.80;67.10
15543;DHT22;7873;52.230;12.856;2022-08-19T10:43:33;25.80;66.90
15543;DHT22;7873;52.230;12.856;2022-08-19T10:46:02;25.90;66.30
15543;DHT22;7873;52.230;12.856;2022-08-19T10:48:29;25.90;65.60
15543;DHT22;7873;52.230;12.856;2022-08-19T10:50:56;25.90;65.90
15543;DHT22;7873;52.230;12.856;2022-08-19T10:53:42;25.90;65.80
15543;DHT22;7873;52.230;12.856;2022-08-19T10:56:09;25.90;65.90
15543;DHT22;7873;52.230;12.856;2022-08-19T10:58:53;26.00;65.00
15543;DHT22;7873;52.230;12.856;2022-08-19T11:01:21;26.10;64.80
15543;DHT22;7873;52.230;12.856;2022-08-19T11:03:48;26.00;65.30
15543;DHT22;7873;52.230;12.856;2022-08-19T11:06:15;25.90;65.30
15543;DHT22;7873;52.230;12.856;2022-08-19T11:08:43;25.90;64.90
15543;DHT22;7873;52.230;12.856;2022-08-19T11:11:10;26.10;64.10
15543;DHT22;7873;52.230;12.856;2022-08-19T11:13:39;26.00;65.00
15543;DHT22;7873;52.230;12.856;2022-08-19T11:16:12;25.90;65.20
15543;DHT22;7873;52.230;12.856;2022-08-19T11:18:48;26.00;64.90
15543;DHT22;7873;52.230;12.856;2022-08-19T11:21:22;26.10;65.00
15543;DHT22;7873;52.230;12.856;2022-08-19T11:23:53;26.00;65.20
15543;DHT22;7873;52.230;12.856;2022-08-19T11:26:26;26.00;65.30
15543;DHT22;7873;52.230;12.856;2022-08-19T11:28:57;26.00;65.30
15543;DHT22;7873;52.230;12.856;2022-08-19T11:31:31;25.90;65.80
15543;DHT22;7873;52.230;12.856;2022-08-19T11:34:02;25.90;66.40
15543;DHT22;7873;52.230;12.856;2022-08-19T11:36:36;25.90;65.40
15543;DHT22;7873;52.230;12.856;2022-08-19T11:39:11;25.80;66.00
15543;DHT22;7873;52.230;12.856;2022-08-19T11:41:39;25.80;66.00
15543;DHT22;7873;52.230;12.856;2022-08-19T11:44:08;25.90;66.30
15543;DHT22;7873;52.230;12.856;2022-08-19T11:46:41;25.90;66.00
15543;DHT22;7873;52.230;12.856;2022-08-19T11:49:12;25.90;65.80
15543;DHT22;7873;52.230;12.856;2022-08-19T11:51:40;25.70;66.20
15543;DHT22;7873;52.230;12.856;2022-08-19T11:54:12;25.70;66.30
15543;DHT22;7873;52.230;12.856;2022-08-19T11:56:41;25.70;66.00
15543;DHT22;7873;52.230;12.856;2022-08-19T11:59:08;26.00;65.40
15543;DHT22;7873;52.230;12.856;2022-08-19T12:01:36;26.00;65.60
15543;DHT22;7873;52.230;12.856;2022-08-19T12:04:03;26.00;65.20
15543;DHT22;7873;52.230;12.856;2022-08-19T12:06:31;26.10;64.90
15543;DHT22;7873;52.230;12.856;2022-08-19T12:09:00;26.20;65.00
15543;DHT22;7873;52.230;12.856;2022-08-19T12:11:31;26.30;64.00
15543;DHT22;7873;52.230;12.856;2022-08-19T12:13:58;26.30;64.10
15543;DHT22;7873;52.230;12.856;2022-08-19T12:16:25;26.30;64.00
15543;DHT22;7873;52.230;12.856;2022-08-19T12:18:53;26.30;64.20
15543;DHT22;7873;52.230;12.856;2022-08-19T12:21:22;26.20;64.50
15543;DHT22;7873;52.230;12.856;2022-08-19T12:23:54;26.20;64.80
15543;DHT22;7873;52.230;12.856;2022-08-19T12:26:22;26.20;65.10
15543;DHT22;7873;52.230;12.856;2022-08-19T12:28:52;26.10;64.70
15543;DHT22;7873;52.230;12.856;2022-08-19T12:31:19;26.10;64.70
15543;DHT22;7873;52.230;12.856;2022-08-19T12:33:45;26.20;65.10
15543;DHT22;7873;52.230;12.856;2022-08-19T12:36:13;26.00;65.00
15543;DHT22;7873;52.230;12.856;2022-08-19T12:38:41;26.00;65.40
15543;DHT22;7873;52.230;12.856;2022-08-19T12:41:10;26.20;65.20
15543;DHT22;7873;52.230;12.856;2022-08-19T12:43:38;26.30;66.40
15543;DHT22;7873;52.230;12.856;2022-08-19T12:46:07;26.40;66.50
15543;DHT22;7873;52.230;12.856;2022-08-19T12:48:34;26.50;65.00
15543;DHT22;7873;52.230;12.856;2022-08-19T12:51:05;26.70;65.90
15543;DHT22;7873;52.230;12.856;2022-08-19T12:53:32;26.60;65.60
15543;DHT22;7873;52.230;12.856;2022-08-19T12:55:59;26.60;67.20
15543;DHT22;7873;52.230;12.856;2022-08-19T12:58:26;26.60;67.40
15543;DHT22;7873;52.230;12.856;2022-08-19T13:00:54;26.50;67.10
15543;DHT22;7873;52.230;12.856;2022-08-19T13:03:22;26.50;66.90
15543;DHT22;7873;52.230;12.856;2022-08-19T13:05:54;26.50;66.80
15543;DHT22;7873;52.230;12.856;2022-08-19T13:08:21;26.40;66.70
15543;DHT22;7873;52.230;12.856;2022-08-19T13:10:48;26.60;66.30
15543;DHT22;7873;52.230;12.856;2022-08-19T13:13:15;26.60;66.20
15543;DHT22;7873;52.230;12.856;2022-08-19T13:15:41;26.70;66.10
15543;DHT22;7873;52.230;12.856;2022-08-19T13:18:10;26.70;65.60
15543;DHT22;7873;52.230;12.856;2022-08-19T13:20:40;26.70;65.40
15543;DHT22;7873;52.230;12.856;2022-08-19T13:23:07;26.70;65.30
15543;DHT22;7873;52.230;12.856;2022-08-19T13:25:35;26.60;64.70
15543;DHT22;7873;52.230;12.856;2022-08-19T13:28:02;26.70;65.90
15543;DHT22;7873;52.230;12.856;2022-08-19T13:30:29;26.70;64.80
15543;DHT22;7873;52.230;12.856;2022-08-19T13:33:13;26.70;64.70
15543;DHT22;7873;52.230;12.856;2022-08-19T13:35:42;26.70;64.60
15543;DHT22;7873;52.230;12.856;2022-08-19T13:38:12;26.80;64.40
15543;DHT22;7873;52.230;12.856;2022-08-19T13:40:39;26.80;64.20
15543;DHT22;7873;52.230;12.856;2022-08-19T13:43:07;26.80;63.70
15543;DHT22;7873;52.230;12.856;2022-08-19T13:45:35;26.90;63.70
15543;DHT22;7873;52.230;12.856;2022-08-19T13:48:02;26.70;64.20
15543;DHT22;7873;52.230;12.856;2022-08-19T13:50:33;26.70;64.40
15543;DHT22;7873;52.230;12.856;2022-08-19T13:53:02;26.60;63.90
15543;DHT22;7873;52.230;12.856;2022-08-19T13:55:29;26.60;63.80
15543;DHT22;7873;52.230;12.856;2022-08-19T13:57:56;26.60;63.70
15543;DHT22;7873;52.230;12.856;2022-08-19T14:00:27;26.60;63.50
15543;DHT22;7873;52.230;12.856;2022-08-19T14:02:56;26.60;63.20
15543;DHT22;7873;52.230;12.856;2022-08-19T14:05:23;26.50;63.10
15543;DHT22;7873;52.230;12.856;2022-08-19T14:07:51;26.50;63.10
15543;DHT22;7873;52.230;12.856;2022-08-19T14:10:20;26.50;63.00
15543;DHT22;7873;52.230;12.856;2022-08-19T14:12:48;26.50;63.10
15543;DHT22;7873;52.230;12.856;2022-08-19T14:15:15;26.40;63.00
15543;DHT22;7873;52.230;12.856;2022-08-19T14:17:43;26.40;63.20
15543;DHT22;7873;52.230;12.856;2022-08-19T14:20:12;26.40;63.20
15543;DHT22;7873;52.230;12.856;2022-08-19T14:22:40;26.40;63.20
15543;DHT22;7873;52.230;12.856;2022-08-19T14:25:09;26.40;63.10
15543;DHT22;7873;52.230;12.856;2022-08-19T14:27:39;26.40;63.00
15543;DHT22;7873;52.230;12.856;2022-08-19T14:30:07;26.40;62.90
15543;DHT22;7873;52.230;12.856;2022-08-19T14:32:35;26.40;62.90
15543;DHT22;7873;52.230;12.856;2022-08-19T14:35:02;26.40;62.90
15543;DHT22;7873;52.230;12.856;2022-08-19T14:37:30;26.40;62.70
15543;DHT22;7873;52.230;12.856;2022-08-19T14:39:57;26.40;62.60
15543;DHT22;7873;52.230;12.856;2022-08-19T14:42:23;26.30;62.80
15543;DHT22;7873;52.230;12.856;2022-08-19T14:44:51;26.30;62.90
15543;DHT22;7873;52.230;12.856;2022-08-19T14:47:19;26.30;62.90
15543;DHT22;7873;52.230;12.856;2022-08-19T14:49:45;26.30;64.00
15543;DHT22;7873;52.230;12.856;2022-08-19T14:52:12;26.30;63.00
15543;DHT22;7873;52.230;12.856;2022-08-19T14:54:39;26.20;63.10
15543;DHT22;7873;52.230;12.856;2022-08-19T14:57:05;26.20;63.20
15543;DHT22;7873;52.230;12.856;2022-08-19T14:59:32;26.20;63.10
15543;DHT22;7873;52.230;12.856;2022-08-19T15:02:01;26.20;63.10
15543;DHT22;7873;52.230;12.856;2022-08-19T15:04:28;26.30;62.90
15543;DHT22;7873;52.230;12.856;2022-08-19T15:06:55;26.30;62.80
15543;DHT22;7873;52.230;12.856;2022-08-19T15:09:21;26.30;62.80
15543;DHT22;7873;52.230;12.856;2022-08-19T15:11:48;26.30;62.70
15543;DHT22;7873;52.230;12.856;2022-08-19T15:14:15;26.30;62.70
15543;DHT22;7873;52.230;12.856;2022-08-19T15:16:42;26.20;62.70
15543;DHT22;7873;52.230;12.856;2022-08-19T15:19:10;26.20;62.70
15543;DHT22;7873;52.230;12.856;2022-08-19T15:21:36;26.20;62.70
15543;DHT22;7873;52.230;12.856;2022-08-19T15:24:03;26.20;62.70
15543;DHT22;7873;52.230;12.856;2022-08-19T15:26:31;26.20;62.60
15543;DHT22;7873;52.230;12.856;2022-08-19T15:28:57;26.20;62.60
15543;DHT22;7873;52.230;12.856;2022-08-19T15:31:25;26.20;62.70
15543;DHT22;7873;52.230;12.856;2022-08-19T15:33:53;26.20;62.50
15543;DHT22;7873;52.230;12.856;2022-08-19T15:36:23;26.20;62.50
15543;DHT22;7873;52.230;12.856;2022-08-19T15:38:51;26.20;62.50